createdAt,value
2023-02-03T00:02:03.543Z,19.50
2023-02-03T00:04:30.043Z,21.50
2023-02-03T00:06:56.831Z,22.42
2023-02-03T00:09:23.389Z,17.92
2023-02-03T00:11:49.943Z,18.88
2023-02-03T00:14:17.264Z,21.52
2023-02-03T00:16:43.876Z,21.08
2023-02-03T00:19:10.383Z,20.45
2023-02-03T00:21:36.831Z,18.58
2023-02-03T00:24:03.396Z,27.15
2023-02-03T00:26:29.966Z,18.42
2023-02-03T00:28:56.545Z,18.05
2023-02-03T00:31:24.549Z,22.52
2023-02-03T00:33:56.284Z,21.13
2023-02-03T00:36:23.470Z,24.35
2023-02-03T00:38:50.173Z,17.33
2023-02-03T00:41:17.325Z,23.58
2023-02-03T00:43:44.253Z,18.85
2023-02-03T00:46:10.892Z,26.23
2023-02-03T00:48:37.429Z,19.25
2023-02-03T00:51:04.047Z,20.98
2023-02-03T00:53:30.544Z,23.70
2023-02-03T00:55:57.016Z,20.75
2023-02-03T00:58:23.482Z,25.45
2023-02-03T01:00:50.043Z,24.95
2023-02-03T01:03:16.838Z,20.98
2023-02-03T01:05:43.313Z,25.88
2023-02-03T01:08:09.728Z,23.95
2023-02-03T01:10:38.540Z,29.50
2023-02-03T01:13:05.007Z,31.95
2023-02-03T01:15:31.495Z,29.30
2023-02-03T01:17:57.981Z,19.15
2023-02-03T01:20:24.761Z,27.33
2023-02-03T01:22:51.447Z,24.70
2023-02-03T01:25:18.047Z,25.25
2023-02-03T01:27:44.559Z,21.52
2023-02-03T01:30:11.556Z,35.42
2023-02-03T01:32:38.028Z,34.55
2023-02-03T01:35:04.788Z,21.50
2023-02-03T01:37:31.403Z,29.20
2023-02-03T01:39:57.892Z,25.05
2023-02-03T01:42:24.451Z,23.25
2023-02-03T01:44:52.139Z,27.42
2023-02-03T01:47:33.520Z,27.20
2023-02-03T01:50:09.267Z,22.67
2023-02-03T01:52:36.913Z,19.60
2023-02-03T01:55:08.019Z,26.65
2023-02-03T01:57:40.225Z,19.50
2023-02-03T02:00:08.056Z,23.17
2023-02-03T02:02:34.711Z,25.92
2023-02-03T02:08:30.843Z,21.25
2023-02-03T02:10:59.358Z,21.05
2023-02-03T02:13:27.263Z,17.23
2023-02-03T02:16:16.092Z,16.98
2023-02-03T02:19:04.295Z,22.42
2023-02-03T02:21:59.639Z,18.23
2023-02-03T02:24:44.355Z,18.55
2023-02-03T02:27:19.582Z,13.48
2023-02-03T02:29:48.770Z,14.02
2023-02-03T02:32:31.277Z,14.43
2023-02-03T02:35:50.813Z,21.30
2023-02-03T02:38:53.102Z,16.30
2023-02-03T02:41:27.806Z,16.17
2023-02-03T02:44:17.774Z,15.35
2023-02-03T02:46:54.162Z,12.35
2023-02-03T02:49:32.738Z,11.73
2023-02-03T02:52:04.059Z,11.85
2023-02-03T02:54:33.584Z,11.65
2023-02-03T02:57:03.310Z,13.98
2023-02-03T02:59:29.933Z,13.30
2023-02-03T03:01:56.476Z,12.65
2023-02-03T03:04:26.974Z,12.95
2023-02-03T03:06:58.642Z,10.30
2023-02-03T03:09:36.688Z,12.40
2023-02-03T03:12:07.135Z,11.45
2023-02-03T03:14:36.441Z,9.73
2023-02-03T03:17:06.342Z,9.85
2023-02-03T03:19:39.803Z,8.68
2023-02-03T03:22:11.501Z,7.43
2023-02-03T03:24:43.762Z,9.38
2023-02-03T03:27:14.143Z,8.25
2023-02-03T03:29:44.490Z,7.97
2023-02-03T03:32:11.317Z,6.55
2023-02-03T03:34:38.027Z,9.77
2023-02-03T03:37:17.365Z,9.00
2023-02-03T03:39:52.352Z,11.20
2023-02-03T03:42:24.859Z,6.63
2023-02-03T03:44:59.333Z,6.22
2023-02-03T03:47:57.086Z,5.78
2023-02-03T03:50:47.430Z,7.22
2023-02-03T03:53:16.925Z,5.50
2023-02-03T03:55:48.788Z,4.85
2023-02-03T03:58:28.512Z,5.30
2023-02-03T04:00:58.039Z,7.20
2023-02-03T04:03:31.153Z,8.95
2023-02-03T04:05:57.657Z,7.20
2023-02-03T04:08:24.181Z,8.55
2023-02-03T04:10:50.671Z,7.50
2023-02-03T04:13:20.098Z,7.00
2023-02-03T04:15:46.855Z,9.65
2023-02-03T04:18:14.982Z,8.43
2023-02-03T04:20:42.031Z,11.77
2023-02-03T04:23:09.056Z,10.05
2023-02-03T04:25:35.542Z,10.75
2023-02-03T04:28:02.154Z,12.25
2023-02-03T04:30:28.913Z,12.90
2023-02-03T04:32:55.641Z,14.80
2023-02-03T04:35:22.216Z,18.35
2023-02-03T04:37:48.772Z,16.20
2023-02-03T04:40:15.692Z,19.60
2023-02-03T04:42:42.462Z,17.88
2023-02-03T04:45:10.741Z,20.17
2023-02-03T04:47:37.692Z,25.40
2023-02-03T04:50:04.323Z,26.40
2023-02-03T04:52:30.933Z,22.60
2023-02-03T04:54:57.445Z,27.50
2023-02-03T04:57:24.088Z,27.55
2023-02-03T04:59:50.745Z,32.05
2023-02-03T05:02:17.232Z,33.25
2023-02-03T05:04:43.862Z,36.80
2023-02-03T05:07:10.485Z,35.22
2023-02-03T05:09:37.118Z,43.33
2023-02-03T05:12:03.922Z,41.28
2023-02-03T05:14:30.555Z,49.15
2023-02-03T05:16:57.142Z,45.67
2023-02-03T05:19:23.693Z,57.33
2023-02-03T05:21:50.748Z,57.85
2023-02-03T05:24:17.268Z,62.53
2023-02-03T05:26:43.668Z,61.85
2023-02-03T05:29:11.727Z,74.43
2023-02-03T05:31:38.336Z,76.65
2023-02-03T05:34:04.995Z,86.72
2023-02-03T05:36:31.440Z,90.47
2023-02-03T05:38:57.981Z,92.05
2023-02-03T05:41:43.036Z,90.85
2023-02-03T05:44:09.541Z,95.13
2023-02-03T05:46:35.984Z,98.50
2023-02-03T05:49:02.420Z,98.03
2023-02-03T05:51:28.948Z,98.05
2023-02-03T05:53:55.411Z,99.82
2023-02-03T05:56:21.946Z,93.07
2023-02-03T05:58:48.500Z,100.72
2023-02-03T06:01:15.076Z,97.47
2023-02-03T06:03:43.253Z,93.10
2023-02-03T06:06:11.026Z,104.28
2023-02-03T06:08:37.488Z,105.68
2023-02-03T06:11:04.043Z,106.55
2023-02-03T06:13:30.522Z,99.10
2023-02-03T06:15:57.302Z,91.95
2023-02-03T06:18:23.755Z,108.60
2023-02-03T06:20:50.893Z,104.43
2023-02-03T06:23:19.061Z,94.75
2023-02-03T06:25:48.502Z,89.05
2023-02-03T06:28:15.067Z,98.88
2023-02-03T06:30:41.660Z,100.10
2023-02-03T06:33:08.574Z,91.50
2023-02-03T06:35:36.597Z,97.32
2023-02-03T06:38:03.067Z,97.82
2023-02-03T06:40:30.086Z,90.30
2023-02-03T06:42:56.861Z,92.35
2023-02-03T06:45:24.885Z,89.45
2023-02-03T06:47:51.362Z,86.88
2023-02-03T06:50:18.083Z,86.07
2023-02-03T06:52:45.095Z,81.85
2023-02-03T06:55:11.716Z,77.72
2023-02-03T06:57:45.510Z,78.75
2023-02-03T07:00:15.065Z,85.28
2023-02-03T07:02:43.094Z,83.95
2023-02-03T07:05:09.795Z,86.88
2023-02-03T07:07:36.897Z,78.18
2023-02-03T07:10:03.681Z,78.10
2023-02-03T07:12:31.328Z,75.55
2023-02-03T07:14:57.876Z,75.05
2023-02-03T07:17:24.408Z,82.95
2023-02-03T07:19:50.861Z,82.03
2023-02-03T07:22:17.329Z,73.18
2023-02-03T07:24:43.801Z,71.43
2023-02-03T07:27:10.917Z,83.13
2023-02-03T07:29:37.380Z,76.30
2023-02-03T07:32:04.065Z,73.78
2023-02-03T07:34:30.935Z,69.90
2023-02-03T07:36:57.567Z,64.53
2023-02-03T07:39:24.121Z,58.88
2023-02-03T07:41:50.990Z,65.95
2023-02-03T07:44:17.585Z,59.50
2023-02-03T07:46:45.479Z,70.80
2023-02-03T07:49:12.688Z,50.40
2023-02-03T07:51:39.448Z,48.10
2023-02-03T07:54:06.383Z,57.63
2023-02-03T07:56:33.352Z,49.17
2023-02-03T07:58:59.898Z,58.30
2023-02-03T08:01:26.767Z,43.08
2023-02-03T08:03:55.117Z,50.28
2023-02-03T08:06:22.206Z,51.20
2023-02-03T08:08:48.663Z,49.20
2023-02-03T08:11:15.141Z,50.42
2023-02-03T08:13:41.787Z,42.47
2023-02-03T08:16:08.348Z,44.10
2023-02-03T08:18:34.838Z,43.83
2023-02-03T08:21:03.645Z,37.03
2023-02-03T08:23:31.088Z,40.05
2023-02-03T08:25:57.685Z,38.63
2023-02-03T08:28:24.154Z,41.25
2023-02-03T08:30:50.770Z,36.40
2023-02-03T08:33:17.444Z,31.40
2023-02-03T08:35:48.814Z,32.80
2023-02-03T08:38:15.730Z,31.75
2023-02-03T08:40:42.354Z,28.63
2023-02-03T08:43:09.181Z,34.60
2023-02-03T08:45:35.855Z,27.77
2023-02-03T08:48:02.508Z,26.25
2023-02-03T08:50:29.396Z,27.08
2023-02-03T08:52:56.061Z,28.33
2023-02-03T08:55:22.737Z,27.00
2023-02-03T08:57:49.201Z,31.05
2023-02-03T09:00:16.239Z,32.70
2023-02-03T09:02:42.768Z,29.33
2023-02-03T09:05:09.905Z,25.42
2023-02-03T09:07:36.438Z,24.13
2023-02-03T09:10:05.472Z,25.70
2023-02-03T09:12:31.947Z,25.83
2023-02-03T09:14:58.476Z,28.58
2023-02-03T09:17:24.938Z,21.92
2023-02-03T09:19:51.471Z,27.60
2023-02-03T09:22:17.937Z,23.65
2023-02-03T09:24:44.484Z,25.40
2023-02-03T09:27:10.962Z,18.05
2023-02-03T09:29:37.817Z,28.10
2023-02-03T09:32:08.693Z,19.83
2023-02-03T09:34:35.485Z,11.13
2023-02-03T09:37:02.082Z,24.45
2023-02-03T09:39:28.772Z,17.83
2023-02-03T09:42:25.259Z,17.27
2023-02-03T09:44:54.845Z,17.50
2023-02-03T09:47:29.412Z,17.55
2023-02-03T09:49:59.325Z,19.25
2023-02-03T09:52:32.311Z,16.90
2023-02-03T09:55:16.780Z,19.15
2023-02-03T09:57:51.343Z,14.38
2023-02-03T10:00:26.560Z,13.30
2023-02-03T10:02:56.645Z,23.85
2023-02-03T10:05:54.951Z,12.75
2023-02-03T10:08:24.187Z,15.20
2023-02-03T10:11:12.207Z,22.67
2023-02-03T10:13:56.389Z,18.80
2023-02-03T10:16:44.525Z,13.82
2023-02-03T10:19:17.097Z,10.38
2023-02-03T10:21:51.522Z,16.27
2023-02-03T10:24:30.338Z,15.13
2023-02-03T10:26:57.486Z,20.25
2023-02-03T10:29:32.837Z,12.52
2023-02-03T10:32:00.387Z,17.42
2023-02-03T10:34:27.034Z,12.32
2023-02-03T10:37:09.499Z,11.77
2023-02-03T10:39:46.616Z,11.85
2023-02-03T10:42:13.862Z,16.33
2023-02-03T10:45:00.942Z,12.35
2023-02-03T10:47:29.445Z,8.40
2023-02-03T10:49:57.913Z,15.48
2023-02-03T10:52:35.499Z,9.52
2023-02-03T10:55:07.350Z,9.43
2023-02-03T10:57:39.198Z,6.88
2023-02-03T11:00:16.771Z,4.50
2023-02-03T11:02:43.531Z,6.38
2023-02-03T11:05:21.637Z,8.75
2023-02-03T11:07:49.005Z,13.68
2023-02-03T11:10:36.309Z,19.50
2023-02-03T11:13:13.930Z,14.50
2023-02-03T11:15:45.602Z,15.23
2023-02-03T11:18:35.818Z,14.30
2023-02-03T11:21:11.944Z,15.52
2023-02-03T11:23:47.757Z,20.67
2023-02-03T11:26:18.733Z,18.95
2023-02-03T11:28:48.008Z,19.70
2023-02-03T11:31:21.004Z,34.22
2023-02-03T11:33:50.781Z,31.20
2023-02-03T11:36:18.707Z,24.10
2023-02-03T11:38:45.336Z,33.75
2023-02-03T11:41:37.177Z,33.25
2023-02-03T11:44:12.107Z,38.08
2023-02-03T11:46:40.350Z,32.78
2023-02-03T11:49:35.344Z,29.70
2023-02-03T11:52:13.572Z,34.78
2023-02-03T11:55:06.139Z,29.13
2023-02-03T11:57:51.076Z,29.50
2023-02-03T12:00:35.447Z,28.58
2023-02-03T12:03:05.008Z,40.40
2023-02-03T12:06:08.165Z,32.13
2023-02-03T12:08:44.787Z,38.80
2023-02-03T12:11:13.983Z,30.10
2023-02-03T12:13:52.330Z,41.75
2023-02-03T12:16:38.641Z,33.03
2023-02-03T12:19:32.478Z,43.40
2023-02-03T12:22:31.033Z,31.98
2023-02-03T12:25:21.896Z,30.17
2023-02-03T12:27:54.310Z,36.67
2023-02-03T12:30:39.205Z,41.28
2023-02-03T12:33:23.308Z,29.92
2023-02-03T12:35:59.673Z,39.63
2023-02-03T12:38:49.482Z,41.90
2023-02-03T12:41:26.805Z,45.50
2023-02-03T12:43:58.384Z,39.25
2023-02-03T12:46:30.535Z,51.67
2023-02-03T12:49:02.758Z,51.58
2023-02-03T12:51:41.262Z,40.88
2023-02-03T12:54:55.448Z,45.47
2023-02-03T12:57:29.388Z,35.70
2023-02-03T13:00:50.203Z,46.70
2023-02-03T13:03:28.877Z,51.33
2023-02-03T13:06:19.801Z,41.70
2023-02-03T13:09:05.539Z,37.13
2023-02-03T13:11:40.806Z,36.88
2023-02-03T13:14:12.976Z,33.70
2023-02-03T13:16:44.581Z,38.05
2023-02-03T13:21:47.803Z,38.10
2023-02-03T13:24:14.373Z,41.20
2023-02-03T13:26:48.596Z,36.13
2023-02-03T13:29:36.171Z,35.50
2023-02-03T13:32:14.667Z,37.95
2023-02-03T13:34:59.383Z,30.27
2023-02-03T13:37:47.370Z,22.42
2023-02-03T13:40:28.480Z,42.08
2023-02-03T13:43:06.476Z,23.55
2023-02-03T13:45:40.722Z,30.20
2023-02-03T13:48:14.357Z,33.10
2023-02-03T13:50:41.394Z,29.33
2023-02-03T13:53:16.513Z,35.33
2023-02-03T13:55:51.975Z,42.50
2023-02-03T13:58:28.285Z,32.67
2023-02-03T14:00:56.406Z,44.88
2023-02-03T14:03:29.089Z,21.45
2023-02-03T14:05:57.316Z,37.63
2023-02-03T14:08:26.744Z,36.85
2023-02-03T14:11:30.402Z,35.35
2023-02-03T14:14:20.721Z,41.97
2023-02-03T14:16:54.629Z,44.90
2023-02-03T14:19:21.351Z,49.38
2023-02-03T14:21:58.776Z,38.72
2023-02-03T14:24:41.890Z,36.90
2023-02-03T14:27:21.629Z,47.53
2023-02-03T14:30:09.277Z,43.50
2023-02-03T14:32:54.351Z,43.70
2023-02-03T14:35:25.504Z,53.08
2023-02-03T14:37:55.035Z,52.33
2023-02-03T14:40:53.790Z,41.13
2023-02-03T14:43:32.478Z,58.63
2023-02-03T14:46:13.569Z,50.30
2023-02-03T14:48:42.848Z,52.78
2023-02-03T14:51:20.176Z,56.17
2023-02-03T14:54:18.011Z,49.50
2023-02-03T14:57:31.541Z,63.30
2023-02-03T15:00:00.212Z,44.30
2023-02-03T15:02:31.029Z,55.08
2023-02-03T15:05:12.830Z,44.13
2023-02-03T15:07:46.265Z,59.10
2023-02-03T15:10:19.626Z,51.63
2023-02-03T15:12:47.566Z,46.60
2023-02-03T15:15:21.939Z,45.65
2023-02-03T15:17:50.310Z,49.53
2023-02-03T15:20:41.344Z,35.63
2023-02-03T15:23:22.916Z,41.67
2023-02-03T15:25:59.945Z,41.30
2023-02-03T15:28:29.045Z,35.63
2023-02-03T15:31:01.593Z,33.90
2023-02-03T15:33:31.484Z,36.08
2023-02-03T15:36:15.910Z,37.55
2023-02-03T15:38:49.437Z,36.25
2023-02-03T15:41:24.793Z,43.97
2023-02-03T15:44:32.912Z,48.75
2023-02-03T15:47:01.507Z,39.55
2023-02-03T15:49:40.186Z,36.88
2023-02-03T15:52:09.572Z,50.35
2023-02-03T15:54:45.652Z,39.10
2023-02-03T15:57:24.639Z,43.33
2023-02-03T15:59:55.990Z,41.92
2023-02-03T16:02:33.303Z,45.67
2023-02-03T16:05:06.093Z,34.90
2023-02-03T16:07:32.731Z,31.48
2023-02-03T16:09:59.930Z,44.38
2023-02-03T16:12:34.425Z,34.90
2023-02-03T16:15:01.921Z,39.72
2023-02-03T16:17:29.921Z,41.33
2023-02-03T16:20:11.323Z,41.70
2023-02-03T16:22:46.819Z,48.05
2023-02-03T16:25:28.149Z,47.00
2023-02-03T16:28:19.693Z,44.13
2023-02-03T16:31:33.197Z,50.60
2023-02-03T16:34:20.052Z,47.58
2023-02-03T16:37:05.601Z,46.88
2023-02-03T16:39:50.288Z,47.90
2023-02-03T16:42:37.965Z,45.45
2023-02-03T16:45:32.214Z,48.40
2023-02-03T16:48:17.461Z,47.70
2023-02-03T16:50:53.490Z,46.72
2023-02-03T16:53:24.194Z,42.03
2023-02-03T16:55:52.447Z,46.03
2023-02-03T16:58:18.949Z,49.92
2023-02-03T17:00:47.385Z,56.65
2023-02-03T17:03:16.579Z,54.60
2023-02-03T17:05:45.436Z,47.58
2023-02-03T17:08:12.732Z,46.42
2023-02-03T17:10:41.907Z,45.65
2023-02-03T17:13:09.210Z,59.08
2023-02-03T17:15:44.395Z,46.65
2023-02-03T17:18:11.380Z,49.35
2023-02-03T17:20:38.019Z,50.50
2023-02-03T17:23:04.504Z,49.35
2023-02-03T17:25:36.032Z,44.13
2023-02-03T17:28:07.231Z,42.53
2023-02-03T17:30:35.107Z,45.22
2023-02-03T17:33:03.204Z,41.42
2023-02-03T17:35:30.024Z,46.40
2023-02-03T17:37:56.753Z,52.88
2023-02-03T17:54:06.699Z,54.30
2023-02-03T17:56:35.598Z,48.53
2023-02-03T17:59:04.298Z,36.42
2023-02-03T18:01:31.745Z,54.05
2023-02-03T18:04:00.982Z,43.90
2023-02-03T18:06:29.825Z,68.70
2023-02-03T18:09:01.259Z,48.53
2023-02-03T18:11:29.222Z,53.15
2023-02-03T18:13:56.251Z,51.78
2023-02-03T18:16:26.464Z,30.83
2023-02-03T18:18:53.720Z,39.00
2023-02-03T18:21:22.125Z,45.45
2023-02-03T18:23:49.453Z,44.30
2023-02-03T18:26:15.941Z,41.63
2023-02-03T18:28:42.425Z,43.63
2023-02-03T18:31:11.959Z,34.97
2023-02-03T18:33:38.770Z,49.53
2023-02-03T18:36:06.494Z,40.85
2023-02-03T18:38:34.739Z,49.42
2023-02-03T18:41:08.786Z,55.53
2023-02-03T18:43:35.963Z,48.35
2023-02-03T18:46:10.409Z,40.78
2023-02-03T18:48:37.425Z,45.03
2023-02-03T18:51:08.473Z,47.22
2023-02-03T18:53:35.973Z,27.73
2023-02-03T18:56:06.381Z,39.10
2023-02-03T18:58:33.436Z,37.15
2023-02-03T19:01:00.601Z,37.80
2023-02-03T19:03:27.381Z,38.47
2023-02-03T19:05:54.237Z,47.00
2023-02-03T19:08:20.942Z,34.10
2023-02-03T19:10:51.714Z,37.90
2023-02-03T19:13:19.627Z,31.58
2023-02-03T19:15:48.270Z,33.40
2023-02-03T19:18:15.729Z,38.55
2023-02-03T19:20:43.836Z,35.10
2023-02-03T19:23:13.093Z,34.47
2023-02-03T19:25:40.026Z,33.00
2023-02-03T19:28:14.181Z,37.15
2023-02-03T19:30:44.328Z,35.88
2023-02-03T19:33:10.792Z,37.83
2023-02-03T19:35:37.243Z,34.70
2023-02-03T19:38:03.650Z,44.08
2023-02-03T19:40:30.800Z,30.77
2023-02-03T19:42:57.488Z,41.22
2023-02-03T19:45:23.983Z,33.05
2023-02-03T19:47:50.407Z,38.55
2023-02-03T19:50:17.315Z,30.50
2023-02-03T19:52:43.855Z,39.72
2023-02-03T19:55:10.359Z,37.40
2023-02-03T19:57:36.830Z,30.83
2023-02-03T20:00:03.682Z,38.60
2023-02-03T20:02:30.099Z,31.83
2023-02-03T20:04:57.533Z,38.15
2023-02-03T20:07:25.281Z,31.52
2023-02-03T20:09:51.804Z,37.13
2023-02-03T20:12:18.211Z,26.70
2023-02-03T20:14:44.662Z,29.40
2023-02-03T20:17:11.128Z,23.67
2023-02-03T20:19:37.539Z,22.65
2023-02-03T20:22:04.095Z,28.10
2023-02-03T20:24:30.547Z,21.90
2023-02-03T20:26:57.028Z,30.50
2023-02-03T20:29:23.548Z,18.58
2023-02-03T20:31:50.857Z,15.27
2023-02-03T20:34:18.910Z,26.98
2023-02-03T20:36:45.386Z,24.50
2023-02-03T20:39:18.193Z,30.65
2023-02-03T20:41:45.123Z,23.40
2023-02-03T20:44:14.444Z,20.58
2023-02-03T20:46:41.577Z,23.88
2023-02-03T20:49:16.880Z,9.88
2023-02-03T20:51:43.322Z,13.50
2023-02-03T20:54:18.429Z,16.42
2023-02-03T20:56:45.503Z,22.40
2023-02-03T20:59:13.431Z,24.17
2023-02-03T21:01:39.993Z,15.50
2023-02-03T21:04:33.775Z,15.32
2023-02-03T21:07:01.458Z,19.80
2023-02-03T21:09:27.865Z,13.77
2023-02-03T21:11:55.341Z,17.15
2023-02-03T21:14:29.296Z,10.32
2023-02-03T21:16:55.706Z,12.73
2023-02-03T21:19:33.581Z,8.73
2023-02-03T21:22:14.836Z,8.60
2023-02-03T21:24:45.615Z,6.30
2023-02-03T21:27:24.321Z,11.05
2023-02-03T21:29:51.853Z,10.75
2023-02-03T21:32:18.275Z,6.10
2023-02-03T21:34:45.690Z,5.30
2023-02-03T21:37:21.187Z,5.75
2023-02-03T21:39:48.953Z,4.05
2023-02-03T21:42:43.548Z,5.70
2023-02-03T21:45:21.882Z,5.70
2023-02-03T21:47:51.812Z,6.47
2023-02-03T21:50:31.217Z,4.43
2023-02-03T21:53:10.349Z,4.45
2023-02-03T21:55:38.773Z,4.32
2023-02-03T21:58:32.325Z,4.88
2023-02-03T22:01:00.867Z,3.83
2023-02-03T22:03:36.316Z,4.85
2023-02-03T22:06:08.713Z,4.88
2023-02-03T22:08:41.526Z,4.30
2023-02-03T22:11:08.551Z,5.40
2023-02-03T22:13:35.170Z,4.03
2023-02-03T22:16:01.983Z,2.85
2023-02-03T22:18:28.500Z,4.43
2023-02-03T22:20:54.931Z,5.88
2023-02-03T22:23:21.941Z,2.17
2023-02-03T22:25:49.162Z,2.58
2023-02-03T22:28:15.660Z,9.50
2023-02-03T22:30:42.317Z,2.63
2023-02-03T22:33:08.849Z,3.15
2023-02-03T22:35:35.475Z,3.03
2023-02-03T22:38:01.948Z,4.03
2023-02-03T22:40:28.878Z,1.73
2023-02-03T22:42:55.586Z,5.47
2023-02-03T22:45:22.172Z,2.42
2023-02-03T22:47:48.575Z,2.47
2023-02-03T22:50:17.320Z,4.03
2023-02-03T22:52:44.114Z,6.45
2023-02-03T22:55:10.824Z,7.25
2023-02-03T22:57:38.161Z,4.47
2023-02-03T23:00:11.019Z,2.72
2023-02-03T23:02:40.936Z,3.28
2023-02-03T23:05:09.345Z,3.05
2023-02-03T23:07:37.229Z,6.38
2023-02-03T23:10:05.237Z,4.35
2023-02-03T23:12:31.767Z,2.92
2023-02-03T23:14:58.426Z,4.10
2023-02-03T23:17:25.315Z,3.58
2023-02-03T23:19:51.757Z,3.53
2023-02-03T23:22:18.287Z,5.57
2023-02-03T23:24:45.756Z,2.92
2023-02-03T23:27:12.571Z,3.45
2023-02-03T23:29:39.235Z,4.03
2023-02-03T23:32:06.271Z,3.67
2023-02-03T23:34:51.908Z,3.80
2023-02-03T23:37:19.055Z,5.32
2023-02-03T23:39:45.515Z,5.03
2023-02-03T23:42:11.937Z,2.35
2023-02-03T23:44:38.436Z,7.93
2023-02-03T23:47:05.130Z,3.97
2023-02-03T23:49:31.531Z,10.30
2023-02-03T23:51:58.253Z,4.60
2023-02-03T23:54:25.439Z,2.75
2023-02-03T23:56:52.918Z,6.68
2023-02-03T23:59:19.986Z,7.60
